createdAt,value
2022-09-10T00:01:53.697Z,100097.69
2022-09-10T00:06:57.556Z,100100.09
2022-09-10T00:11:59.980Z,100103.22
2022-09-10T00:17:02.558Z,100111.50
2022-09-10T00:22:06.364Z,100108.44
2022-09-10T00:27:09.188Z,100108.91
2022-09-10T00:32:11.644Z,100112.66
2022-09-10T00:37:16.319Z,100113.31
2022-09-10T00:42:18.991Z,100118.31
2022-09-10T00:47:27.472Z,100116.22
2022-09-10T00:52:31.461Z,100119.13
2022-09-10T00:57:34.084Z,100121.56
2022-09-10T01:02:37.020Z,100116.66
2022-09-10T01:07:40.919Z,100114.28
2022-09-10T01:13:01.481Z,100113.47
2022-09-10T01:18:18.712Z,100110.94
2022-09-10T01:23:44.003Z,100108.84
2022-09-10T01:28:57.224Z,100108.19
2022-09-10T01:34:04.110Z,100104.88
2022-09-10T01:39:07.712Z,100105.81
2022-09-10T01:44:32.738Z,100104.16
2022-09-10T01:49:43.069Z,100112.09
2022-09-10T01:55:02.402Z,100107.09
2022-09-10T02:00:10.632Z,100109.59
2022-09-10T02:05:14.892Z,100103.59
2022-09-10T02:10:17.570Z,100106.38
2022-09-10T02:15:23.324Z,100102.63
2022-09-10T02:20:26.034Z,100105.38
2022-09-10T02:25:34.306Z,100111.06
2022-09-10T02:30:38.064Z,100109.59
2022-09-10T02:35:40.802Z,100105.53
2022-09-10T02:40:43.419Z,100112.81
2022-09-10T02:45:47.249Z,100108.31
2022-09-10T02:50:49.706Z,100113.31
2022-09-10T02:55:52.220Z,100119.47
2022-09-10T03:01:06.632Z,100116.38
2022-09-10T03:06:09.593Z,100112.09
2022-09-10T03:11:13.164Z,100114.69
2022-09-10T03:16:20.707Z,100125.09
2022-09-10T03:21:25.706Z,100114.69
2022-09-10T03:26:28.176Z,100117.66
2022-09-10T03:31:32.316Z,100119.53
2022-09-10T03:36:34.799Z,100117.94
2022-09-10T03:41:37.435Z,100124.81
2022-09-10T03:46:41.329Z,100122.38
2022-09-10T03:51:43.995Z,100121.81
2022-09-10T03:56:46.782Z,100128.06
2022-09-10T04:01:50.958Z,100126.91
2022-09-10T04:06:54.030Z,100114.75
2022-09-10T04:11:56.824Z,100120.06
2022-09-10T04:17:00.859Z,100114.34
2022-09-10T04:22:03.265Z,100109.22
2022-09-10T04:27:06.478Z,100100.34
2022-09-10T04:32:10.467Z,100107.06
2022-09-10T04:37:16.178Z,100109.47
2022-09-10T04:42:21.676Z,100107.28
2022-09-10T04:47:25.629Z,100114.94
2022-09-10T04:52:28.969Z,100111.69
2022-09-10T04:57:31.398Z,100108.94
2022-09-10T05:02:36.602Z,100108.47
2022-09-10T05:07:39.049Z,100108.94
2022-09-10T05:12:41.533Z,100102.97
2022-09-10T05:17:45.346Z,100104.97
2022-09-10T05:22:47.827Z,100114.34
2022-09-10T05:27:51.275Z,100118.03
2022-09-10T05:32:55.027Z,100118.25
2022-09-10T05:37:57.762Z,100118.94
2022-09-10T05:43:00.226Z,100125.34
2022-09-10T05:48:04.481Z,100128.31
2022-09-10T05:53:06.909Z,100127.72
2022-09-10T05:58:09.603Z,100133.75
2022-09-10T06:03:13.676Z,100137.22
2022-09-10T06:08:16.361Z,100138.22
2022-09-10T06:13:20.614Z,100133.63
2022-09-10T06:18:24.651Z,100136.56
2022-09-10T06:23:27.111Z,100142.75
2022-09-10T06:28:29.522Z,100147.81
2022-09-10T06:33:34.062Z,100150.69
2022-09-10T06:38:36.610Z,100144.50
2022-09-10T06:43:41.563Z,100154.41
2022-09-10T06:48:50.268Z,100149.91
2022-09-10T06:53:52.995Z,100154.78
2022-09-10T06:59:00.360Z,100152.91
2022-09-10T07:04:06.947Z,100148.63
2022-09-10T07:09:11.538Z,100152.09
2022-09-10T07:14:17.992Z,100152.75
2022-09-10T07:19:21.792Z,100162.72
2022-09-10T07:24:24.509Z,100160.69
2022-09-10T07:29:31.335Z,100167.34
2022-09-10T07:34:35.191Z,100163.72
2022-09-10T07:39:38.025Z,100176.00
2022-09-10T07:44:40.520Z,100177.31
2022-09-10T07:49:44.688Z,100180.50
2022-09-10T07:54:47.146Z,100188.34
2022-09-10T07:59:49.825Z,100187.88
2022-09-10T08:04:53.651Z,100195.41
2022-09-10T08:09:56.106Z,100196.41
2022-09-10T08:14:58.880Z,100201.22
2022-09-10T08:20:05.509Z,100197.31
2022-09-10T08:25:09.166Z,100199.00
2022-09-10T08:30:12.992Z,100201.84
2022-09-10T08:35:17.667Z,100197.63
2022-09-10T08:40:21.417Z,100210.22
2022-09-10T08:45:30.092Z,100209.88
2022-09-10T08:50:42.044Z,100202.34
2022-09-10T08:55:48.818Z,100192.81
2022-09-10T09:00:55.725Z,100195.03
2022-09-10T09:06:02.051Z,100200.84
2022-09-10T09:11:14.183Z,100194.50
2022-09-10T09:16:32.537Z,100194.28
2022-09-10T09:21:46.965Z,100202.09
2022-09-10T09:26:49.777Z,100199.56
2022-09-10T09:31:56.617Z,100202.06
2022-09-10T09:37:04.287Z,100187.06
2022-09-10T09:42:12.471Z,100184.72
2022-09-10T09:47:14.895Z,100180.50
2022-09-10T09:52:22.288Z,100179.78
2022-09-10T09:57:24.799Z,100182.16
2022-09-10T10:02:30.418Z,100162.56
2022-09-10T10:07:36.527Z,100152.13
2022-09-10T10:12:50.695Z,100155.34
2022-09-10T10:17:53.340Z,100152.13
2022-09-10T10:22:57.177Z,100144.91
2022-09-10T10:27:59.781Z,100144.84
2022-09-10T10:33:04.341Z,100147.44
2022-09-10T10:38:34.339Z,100134.53
2022-09-10T10:43:47.813Z,100136.84
2022-09-10T10:49:04.300Z,100125.28
2022-09-10T10:54:32.073Z,100138.84
2022-09-10T10:59:48.073Z,100139.94
2022-09-10T11:04:52.772Z,100131.81
2022-09-10T11:10:01.019Z,100130.50
2022-09-10T11:15:17.023Z,100114.47
2022-09-10T11:20:29.040Z,100125.66
2022-09-10T11:25:39.949Z,100117.00
2022-09-10T11:30:49.426Z,100127.78
2022-09-10T11:36:00.171Z,100128.25
2022-09-10T11:41:11.202Z,100146.94
2022-09-10T11:46:17.779Z,100142.34
2022-09-10T11:51:28.017Z,100139.78
2022-09-10T11:56:43.223Z,100127.81
2022-09-10T12:02:05.026Z,100126.13
2022-09-10T12:07:14.682Z,100124.22
2022-09-10T12:12:25.996Z,100116.63
2022-09-10T12:17:33.346Z,100117.28
2022-09-10T12:22:39.365Z,100125.63
2022-09-10T12:27:51.859Z,100114.09
2022-09-10T12:32:55.518Z,100130.47
2022-09-10T12:38:31.292Z,100119.19
2022-09-10T12:43:55.089Z,100118.97
2022-09-10T12:49:12.614Z,100100.75
2022-09-10T12:54:33.733Z,100106.75
2022-09-10T13:00:12.029Z,100117.66
2022-09-10T13:05:29.850Z,100105.22
2022-09-10T13:10:32.989Z,100096.19
2022-09-10T13:15:40.014Z,100094.22
2022-09-10T13:20:42.466Z,100094.22
2022-09-10T13:25:46.438Z,100090.19
2022-09-10T13:30:59.747Z,100094.22
2022-09-10T13:36:13.023Z,100097.00
2022-09-10T13:41:47.473Z,100095.63
2022-09-10T13:46:55.500Z,100101.91
2022-09-10T13:52:02.005Z,100102.97
2022-09-10T13:57:09.281Z,100095.41
2022-09-10T14:02:13.284Z,100098.25
2022-09-10T14:07:21.174Z,100094.00
2022-09-10T14:12:28.339Z,100099.50
2022-09-10T14:17:36.918Z,100092.09
2022-09-10T14:22:39.524Z,100096.44
2022-09-10T14:27:44.290Z,100084.25
2022-09-10T14:32:48.432Z,100075.09
2022-09-10T14:37:51.686Z,100090.16
2022-09-10T14:43:15.306Z,100081.41
2022-09-10T14:48:37.543Z,100069.56
2022-09-10T14:53:40.715Z,100070.03
2022-09-10T14:58:44.088Z,100071.03
2022-09-10T15:03:48.002Z,100077.63
2022-09-10T15:08:51.334Z,100080.94
2022-09-10T15:13:55.910Z,100074.75
2022-09-10T15:19:00.553Z,100075.50
2022-09-10T15:24:04.028Z,100074.56
2022-09-10T15:29:06.522Z,100081.81
2022-09-10T15:34:11.525Z,100083.78
2022-09-10T15:39:14.152Z,100081.53
2022-09-10T15:44:18.326Z,100085.44
2022-09-10T15:49:22.145Z,100092.31
2022-09-10T15:54:24.662Z,100085.50
2022-09-10T15:59:28.341Z,100086.06
2022-09-10T16:04:36.655Z,100080.44
2022-09-10T16:09:40.038Z,100086.53
2022-09-10T16:14:44.368Z,100087.13
2022-09-10T16:19:49.703Z,100107.59
2022-09-10T16:24:52.210Z,100113.69
2022-09-10T16:29:54.666Z,100123.34
2022-09-10T16:35:00.378Z,100124.75
2022-09-10T16:40:05.306Z,100130.34
2022-09-10T16:45:09.140Z,100126.38
2022-09-10T16:50:13.302Z,100115.03
2022-09-10T16:55:15.779Z,100116.34
2022-09-10T17:00:19.008Z,100104.63
2022-09-10T17:05:23.376Z,100098.63
2022-09-10T17:10:26.974Z,100102.91
2022-09-10T17:15:29.563Z,100103.63
2022-09-10T17:20:33.554Z,100101.19
2022-09-10T17:25:36.730Z,100116.09
2022-09-10T17:30:39.271Z,100124.47
2022-09-10T17:35:43.103Z,100126.56
2022-09-10T17:40:46.740Z,100134.63
2022-09-10T17:45:49.165Z,100137.41
2022-09-10T17:50:52.935Z,100146.16
2022-09-10T17:55:55.527Z,100152.28
2022-09-10T18:00:59.816Z,100154.09
2022-09-10T18:06:05.188Z,100161.25
2022-09-10T18:11:10.094Z,100161.19
2022-09-10T18:16:16.223Z,100166.59
2022-09-10T18:21:21.687Z,100170.25
2022-09-10T18:26:26.059Z,100175.63
2022-09-10T18:31:30.963Z,100175.47
2022-09-10T18:36:35.475Z,100182.19
2022-09-10T18:41:40.516Z,100185.56
2022-09-10T18:46:44.159Z,100193.56
2022-09-10T18:51:48.762Z,100188.38
2022-09-10T18:57:05.627Z,100185.00
2022-09-10T19:02:10.623Z,100187.72
2022-09-10T19:07:15.303Z,100190.84
2022-09-10T19:12:19.340Z,100201.00
2022-09-10T19:17:22.115Z,100197.69
2022-09-10T19:22:26.061Z,100204.91
2022-09-10T19:27:29.054Z,100203.25
2022-09-10T19:32:31.759Z,100216.13
2022-09-10T19:37:35.489Z,100207.25
2022-09-10T19:42:37.969Z,100206.28
2022-09-10T19:47:40.584Z,100207.47
2022-09-10T19:52:44.913Z,100204.31
2022-09-10T19:57:47.355Z,100200.22
2022-09-10T20:02:50.788Z,100203.31
2022-09-10T20:07:59.683Z,100215.09
2022-09-10T20:13:02.344Z,100210.19
2022-09-10T20:18:05.239Z,100207.06
2022-09-10T20:23:09.006Z,100217.41
2022-09-10T20:28:12.545Z,100212.69
2022-09-10T20:33:14.967Z,100214.06
2022-09-10T20:38:20.791Z,100206.22
2022-09-10T20:43:23.246Z,100191.13
2022-09-10T20:48:25.922Z,100185.31
2022-09-10T20:53:29.779Z,100193.56
2022-09-10T20:58:32.425Z,100195.34
2022-09-10T21:03:34.998Z,100202.06
2022-09-10T21:08:40.730Z,100199.94
2022-09-10T21:13:46.471Z,100204.63
2022-09-10T21:18:54.320Z,100203.53
2022-09-10T21:24:00.643Z,100200.00
2022-09-10T21:29:06.267Z,100205.19
2022-09-10T21:34:09.274Z,100210.19
2022-09-10T21:39:17.403Z,100224.50
2022-09-10T21:44:22.012Z,100223.00
2022-09-10T21:49:24.982Z,100223.78
2022-09-10T21:54:28.834Z,100227.13
2022-09-10T21:59:31.304Z,100220.44
2022-09-10T22:04:33.724Z,100216.63
2022-09-10T22:09:37.494Z,100229.25
2022-09-10T22:14:39.895Z,100224.84
2022-09-10T22:19:42.844Z,100218.63
2022-09-10T22:24:46.643Z,100223.56
2022-09-10T22:29:51.443Z,100220.94
2022-09-10T22:34:54.135Z,100226.00
2022-09-10T22:39:57.990Z,100228.84
2022-09-10T22:45:01.093Z,100233.81
2022-09-10T22:50:03.525Z,100238.47
2022-09-10T22:55:08.554Z,100243.22
2022-09-10T23:00:13.373Z,100253.53
2022-09-10T23:05:16.125Z,100261.41
2022-09-10T23:10:20.817Z,100261.91
2022-09-10T23:15:23.432Z,100259.31
2022-09-10T23:20:26.039Z,100264.75
2022-09-10T23:25:29.813Z,100261.34
2022-09-10T23:30:32.236Z,100268.59
2022-09-10T23:35:34.643Z,100272.97
2022-09-10T23:40:38.451Z,100274.81
2022-09-10T23:45:40.945Z,100271.22
2022-09-10T23:50:43.497Z,100271.59
2022-09-10T23:55:48.151Z,100268.69
